createdAt,value
2018-09-13T00:02:05.325Z,10.20
2018-09-13T00:04:33.746Z,8.60
2018-09-13T00:07:02.487Z,9.37
2018-09-13T00:09:31.220Z,9.60
2018-09-13T00:11:59.695Z,9.33
2018-09-13T00:14:28.119Z,9.20
2018-09-13T00:16:56.582Z,8.73
2018-09-13T00:19:25.015Z,9.17
2018-09-13T00:21:53.738Z,9.10
2018-09-13T00:24:22.949Z,9.73
2018-09-13T00:26:51.427Z,8.77
2018-09-13T00:29:19.838Z,8.47
2018-09-13T00:31:48.274Z,8.40
2018-09-13T00:34:16.687Z,9.23
2018-09-13T00:36:51.838Z,8.80
2018-09-13T00:39:20.530Z,9.00
2018-09-13T00:41:48.951Z,9.00
2018-09-13T00:44:17.363Z,8.47
2018-09-13T00:46:46.070Z,7.67
2018-09-13T00:49:14.527Z,8.40
2018-09-13T00:51:43.005Z,7.67
2018-09-13T00:54:11.475Z,7.83
2018-09-13T00:56:39.929Z,7.87
2018-09-13T00:59:08.348Z,8.37
2018-09-13T01:01:36.809Z,9.10
2018-09-13T01:04:05.231Z,8.13
2018-09-13T01:06:33.690Z,8.63
2018-09-13T01:09:02.124Z,8.37
2018-09-13T01:11:30.822Z,8.03
2018-09-13T01:13:59.231Z,7.77
2018-09-13T01:16:27.655Z,7.93
2018-09-13T01:18:56.055Z,7.47
2018-09-13T01:21:24.514Z,7.43
2018-09-13T01:23:52.945Z,8.40
2018-09-13T01:26:21.631Z,8.23
2018-09-13T01:28:50.136Z,7.33
2018-09-13T01:31:18.585Z,8.90
2018-09-13T01:33:47.063Z,8.53
2018-09-13T01:36:17.724Z,7.17
2018-09-13T01:38:46.209Z,7.87
2018-09-13T01:41:14.661Z,7.23
2018-09-13T01:43:43.134Z,7.27
2018-09-13T01:46:11.563Z,6.50
2018-09-13T01:48:40.043Z,7.27
2018-09-13T01:51:08.494Z,8.00
2018-09-13T01:53:36.986Z,7.80
2018-09-13T01:56:05.407Z,7.17
2018-09-13T01:58:33.896Z,7.60
2018-09-13T02:01:02.343Z,7.00
2018-09-13T02:03:30.794Z,6.70
2018-09-13T02:05:59.220Z,7.77
2018-09-13T02:08:27.664Z,6.60
2018-09-13T02:10:56.083Z,6.53
2018-09-13T02:13:24.524Z,7.00
2018-09-13T02:15:52.942Z,7.53
2018-09-13T02:18:21.390Z,7.03
2018-09-13T02:20:49.851Z,7.73
2018-09-13T02:23:18.550Z,6.17
2018-09-13T02:25:47.013Z,7.40
2018-09-13T02:28:15.480Z,6.80
2018-09-13T02:30:43.927Z,7.20
2018-09-13T02:33:12.390Z,6.23
2018-09-13T02:35:40.840Z,7.67
2018-09-13T02:38:09.518Z,7.70
2018-09-13T02:40:37.980Z,6.90
2018-09-13T02:43:06.443Z,7.60
2018-09-13T02:45:34.889Z,6.60
2018-09-13T02:48:03.342Z,7.50
2018-09-13T02:50:31.789Z,7.57
2018-09-13T02:53:00.283Z,6.93
2018-09-13T02:55:29.022Z,6.97
2018-09-13T02:57:57.495Z,7.00
2018-09-13T03:00:25.937Z,7.00
2018-09-13T03:02:54.422Z,7.70
2018-09-13T03:05:29.539Z,7.67
2018-09-13T03:07:58.279Z,7.27
2018-09-13T03:10:26.892Z,8.53
2018-09-13T03:12:55.366Z,7.43
2018-09-13T03:15:24.039Z,6.83
2018-09-13T03:17:52.533Z,8.17
2018-09-13T03:20:21.068Z,8.10
2018-09-13T03:22:49.545Z,7.50
2018-09-13T03:25:18.006Z,7.40
2018-09-13T03:27:46.550Z,7.63
2018-09-13T03:30:15.378Z,7.97
2018-09-13T03:32:43.846Z,7.63
2018-09-13T03:35:12.354Z,7.63
2018-09-13T03:37:41.112Z,7.67
2018-09-13T03:40:09.563Z,8.00
2018-09-13T03:42:38.028Z,7.40
2018-09-13T03:45:06.535Z,7.43
2018-09-13T03:47:34.980Z,6.80
2018-09-13T03:50:03.615Z,6.67
2018-09-13T03:52:32.080Z,7.10
2018-09-13T03:55:00.790Z,7.00
2018-09-13T03:57:29.211Z,8.00
2018-09-13T03:59:57.666Z,7.27
2018-09-13T04:02:26.179Z,6.93
2018-09-13T04:04:54.618Z,6.83
2018-09-13T04:07:23.075Z,7.47
2018-09-13T04:09:51.543Z,6.67
2018-09-13T04:12:20.108Z,6.90
2018-09-13T04:14:48.595Z,6.03
2018-09-13T04:17:17.065Z,6.50
2018-09-13T04:19:46.467Z,6.70
2018-09-13T04:22:15.746Z,6.90
2018-09-13T04:24:44.652Z,5.80
2018-09-13T04:27:13.651Z,6.73
2018-09-13T04:29:42.636Z,6.10
2018-09-13T04:32:11.168Z,5.90
2018-09-13T04:34:39.862Z,6.97
2018-09-13T04:37:08.780Z,5.67
2018-09-13T04:39:37.288Z,6.30
2018-09-13T04:42:05.783Z,5.70
2018-09-13T04:44:34.534Z,6.10
2018-09-13T04:47:03.016Z,6.03
2018-09-13T04:49:31.540Z,6.60
2018-09-13T04:52:00.054Z,5.63
2018-09-13T04:54:28.548Z,6.67
2018-09-13T04:56:57.006Z,5.87
2018-09-13T04:59:25.510Z,6.03
2018-09-13T05:01:53.982Z,5.20
2018-09-13T05:04:22.479Z,5.33
2018-09-13T05:06:53.923Z,6.03
2018-09-13T05:09:22.439Z,7.40
2018-09-13T05:11:50.916Z,6.80
2018-09-13T05:14:19.415Z,6.73
2018-09-13T05:16:47.871Z,6.63
2018-09-13T05:19:16.372Z,7.53
2018-09-13T05:21:44.835Z,6.83
2018-09-13T05:24:13.414Z,6.07
2018-09-13T05:26:41.844Z,6.40
2018-09-13T05:29:10.294Z,6.53
2018-09-13T05:31:38.758Z,6.20
2018-09-13T05:34:07.268Z,6.80
2018-09-13T05:36:35.754Z,6.20
2018-09-13T05:39:06.018Z,6.37
2018-09-13T05:41:34.776Z,6.03
2018-09-13T05:44:03.240Z,6.50
2018-09-13T05:46:31.937Z,6.40
2018-09-13T05:49:00.466Z,6.17
2018-09-13T05:51:28.895Z,7.53
2018-09-13T05:53:57.381Z,6.70
2018-09-13T05:56:26.183Z,6.90
2018-09-13T05:58:55.033Z,6.33
2018-09-13T06:01:23.484Z,6.20
2018-09-13T06:03:51.987Z,6.47
2018-09-13T06:06:20.428Z,6.37
2018-09-13T06:08:48.972Z,6.50
2018-09-13T06:11:17.415Z,6.90
2018-09-13T06:13:45.890Z,6.90
2018-09-13T06:16:14.333Z,6.73
2018-09-13T06:18:42.768Z,5.97
2018-09-13T06:21:11.259Z,6.70
2018-09-13T06:23:40.006Z,7.50
2018-09-13T06:26:08.503Z,6.70
2018-09-13T06:28:37.006Z,6.17
2018-09-13T06:31:05.869Z,5.47
2018-09-13T06:33:34.338Z,6.10
2018-09-13T06:36:02.830Z,6.40
2018-09-13T06:38:31.597Z,6.50
2018-09-13T06:41:00.113Z,6.60
2018-09-13T06:43:29.421Z,6.43
2018-09-13T06:45:57.907Z,6.90
2018-09-13T06:48:26.453Z,7.00
2018-09-13T06:50:54.928Z,7.53
2018-09-13T06:53:23.393Z,6.27
2018-09-13T06:55:51.884Z,7.77
2018-09-13T06:58:20.343Z,6.57
2018-09-13T07:00:48.820Z,7.20
2018-09-13T07:03:17.301Z,7.27
2018-09-13T07:05:45.825Z,7.40
2018-09-13T07:08:14.298Z,8.13
2018-09-13T07:10:42.941Z,7.30
2018-09-13T07:13:11.395Z,7.50
2018-09-13T07:15:39.851Z,7.50
2018-09-13T07:18:08.539Z,7.70
2018-09-13T07:20:37.018Z,7.87
2018-09-13T07:23:05.602Z,7.80
2018-09-13T07:25:34.145Z,7.90
2018-09-13T07:28:02.894Z,7.43
2018-09-13T07:30:31.358Z,7.70
2018-09-13T07:32:59.800Z,8.13
2018-09-13T07:35:28.360Z,7.57
2018-09-13T07:37:56.821Z,9.40
2018-09-13T07:40:25.312Z,7.43
2018-09-13T07:42:53.790Z,7.90
2018-09-13T07:45:22.257Z,7.80
2018-09-13T07:47:50.676Z,8.30
2018-09-13T07:50:19.479Z,7.50
2018-09-13T07:52:47.926Z,8.87
2018-09-13T07:55:16.407Z,8.80
2018-09-13T07:57:45.172Z,7.87
2018-09-13T08:00:13.633Z,9.00
2018-09-13T08:02:42.079Z,8.07
2018-09-13T08:05:10.597Z,7.60
2018-09-13T08:07:39.027Z,8.00
2018-09-13T08:10:07.572Z,7.37
2018-09-13T08:12:36.003Z,7.97
2018-09-13T08:15:04.556Z,7.77
2018-09-13T08:17:33.032Z,7.73
2018-09-13T08:20:01.515Z,8.40
2018-09-13T08:22:29.960Z,8.47
2018-09-13T08:24:58.676Z,7.90
2018-09-13T08:27:27.149Z,7.80
2018-09-13T08:29:55.661Z,7.07
2018-09-13T08:32:24.415Z,7.90
2018-09-13T08:34:52.897Z,8.90
2018-09-13T08:37:21.311Z,7.97
2018-09-13T08:39:50.039Z,6.40
2018-09-13T08:42:18.583Z,7.83
2018-09-13T08:44:47.025Z,7.20
2018-09-13T08:47:15.491Z,8.70
2018-09-13T08:49:43.929Z,8.13
2018-09-13T08:52:12.432Z,7.67
2018-09-13T08:54:40.865Z,8.00
2018-09-13T08:57:09.630Z,8.37
2018-09-13T08:59:38.075Z,7.53
2018-09-13T09:02:06.862Z,7.63
2018-09-13T09:04:35.343Z,8.00
2018-09-13T09:07:03.851Z,8.00
2018-09-13T09:09:32.326Z,8.37
2018-09-13T09:12:00.875Z,8.00
2018-09-13T09:14:29.312Z,7.40
2018-09-13T09:16:57.783Z,7.53
2018-09-13T09:19:26.222Z,7.17
2018-09-13T09:21:54.704Z,8.33
2018-09-13T09:24:23.135Z,7.53
2018-09-13T09:26:51.651Z,7.63
2018-09-13T09:29:20.159Z,8.77
2018-09-13T09:31:48.570Z,8.20
2018-09-13T09:34:17.365Z,8.03
2018-09-13T09:36:45.848Z,7.60
2018-09-13T09:39:15.011Z,9.20
2018-09-13T09:41:44.026Z,8.13
2018-09-13T09:44:12.551Z,9.10
2018-09-13T09:46:41.062Z,7.70
2018-09-13T09:49:09.512Z,7.40
2018-09-13T09:51:38.056Z,7.10
2018-09-13T09:54:06.526Z,6.90
2018-09-13T09:56:34.987Z,7.13
2018-09-13T09:59:03.467Z,7.90
2018-09-13T10:01:36.104Z,8.00
2018-09-13T10:04:04.596Z,7.90
2018-09-13T10:06:33.054Z,7.87
2018-09-13T10:09:01.557Z,8.37
2018-09-13T10:11:30.004Z,9.00
2018-09-13T10:13:58.496Z,7.93
2018-09-13T10:16:32.307Z,7.70
2018-09-13T10:19:06.234Z,8.50
2018-09-13T10:21:39.971Z,7.40
2018-09-13T10:24:13.728Z,6.90
2018-09-13T10:26:47.600Z,7.60
2018-09-13T10:29:21.713Z,7.87
2018-09-13T10:31:55.695Z,8.10
2018-09-13T10:34:29.573Z,7.87
2018-09-13T10:37:03.455Z,8.20
2018-09-13T10:39:37.671Z,8.20
2018-09-13T10:42:11.611Z,8.10
2018-09-13T10:44:45.504Z,7.53
2018-09-13T10:47:19.377Z,7.20
2018-09-13T10:49:53.049Z,7.70
2018-09-13T10:52:25.305Z,8.90
2018-09-13T10:54:53.737Z,8.17
2018-09-13T10:57:27.537Z,8.03
2018-09-13T10:59:57.099Z,7.90
2018-09-13T11:02:25.640Z,8.40
2018-09-13T11:04:54.074Z,8.07
2018-09-13T11:07:22.804Z,8.00
2018-09-13T11:09:51.254Z,8.30
2018-09-13T11:12:23.983Z,8.27
2018-09-13T11:14:58.635Z,7.63
2018-09-13T11:17:27.370Z,6.87
2018-09-13T11:19:55.852Z,8.10
2018-09-13T11:22:24.357Z,7.40
2018-09-13T11:24:52.794Z,7.50
2018-09-13T11:27:21.340Z,8.13
2018-09-13T11:29:49.820Z,7.67
2018-09-13T11:32:18.316Z,7.67
2018-09-13T11:34:46.773Z,7.20
2018-09-13T11:37:15.275Z,7.17
2018-09-13T11:39:43.830Z,8.00
2018-09-13T11:42:12.423Z,7.40
2018-09-13T11:44:40.913Z,8.80
2018-09-13T11:47:09.410Z,8.33
2018-09-13T11:49:37.882Z,7.40
2018-09-13T11:52:06.346Z,7.33
2018-09-13T11:54:34.851Z,6.70
2018-09-13T11:57:03.648Z,8.57
2018-09-13T11:59:32.162Z,7.53
2018-09-13T12:02:00.719Z,7.17
2018-09-13T12:04:29.147Z,8.13
2018-09-13T12:06:57.912Z,8.53
2018-09-13T12:09:26.395Z,7.33
2018-09-13T12:11:54.883Z,8.00
2018-09-13T12:14:23.371Z,7.87
2018-09-13T12:16:51.833Z,8.53
2018-09-13T12:19:20.389Z,8.10
2018-09-13T12:21:48.816Z,8.40
2018-09-13T12:24:17.395Z,8.87
2018-09-13T12:26:45.838Z,9.43
2018-09-13T12:29:14.322Z,7.83
2018-09-13T12:31:42.771Z,8.63
2018-09-13T12:34:11.274Z,8.83
2018-09-13T12:36:39.747Z,8.00
2018-09-13T12:39:10.628Z,7.67
2018-09-13T12:41:39.715Z,8.30
2018-09-13T12:44:08.411Z,8.00
2018-09-13T12:46:37.463Z,7.83
2018-09-13T12:49:06.004Z,7.50
2018-09-13T12:51:34.443Z,8.40
2018-09-13T12:54:03.037Z,8.80
2018-09-13T12:56:31.564Z,8.27
2018-09-13T12:59:00.071Z,7.73
2018-09-13T13:01:28.803Z,8.83
2018-09-13T13:03:57.643Z,9.27
2018-09-13T13:06:26.153Z,8.47
2018-09-13T13:08:54.685Z,8.30
2018-09-13T13:11:23.482Z,8.30
2018-09-13T13:13:51.930Z,7.90
2018-09-13T13:16:20.401Z,8.57
2018-09-13T13:18:48.931Z,8.10
2018-09-13T13:21:17.387Z,7.73
2018-09-13T13:23:45.843Z,8.17
2018-09-13T13:26:14.272Z,7.97
2018-09-13T13:28:42.810Z,7.17
2018-09-13T13:31:11.498Z,7.73
2018-09-13T13:33:39.994Z,7.87
2018-09-13T13:36:08.462Z,7.50
2018-09-13T13:38:36.979Z,8.27
2018-09-13T13:41:05.523Z,8.60
2018-09-13T13:43:34.031Z,8.30
2018-09-13T13:46:02.545Z,7.93
2018-09-13T13:48:31.089Z,7.93
2018-09-13T13:50:59.630Z,8.07
2018-09-13T13:53:28.170Z,8.40
2018-09-13T13:55:56.648Z,8.70
2018-09-13T13:58:25.151Z,7.40
2018-09-13T14:00:53.607Z,9.00
2018-09-13T14:03:22.096Z,8.40
2018-09-13T14:05:50.592Z,8.30
2018-09-13T14:08:19.101Z,8.43
2018-09-13T14:10:47.596Z,7.50
2018-09-13T14:13:16.096Z,7.67
2018-09-13T14:15:44.590Z,8.60
2018-09-13T14:18:13.441Z,8.23
2018-09-13T14:20:42.014Z,7.80
2018-09-13T14:23:10.469Z,7.37
2018-09-13T14:25:39.055Z,8.73
2018-09-13T14:28:07.555Z,6.93
2018-09-13T14:30:36.378Z,8.30
2018-09-13T14:33:05.117Z,7.83
2018-09-13T14:35:33.689Z,6.30
2018-09-13T14:38:02.198Z,6.83
2018-09-13T14:40:30.721Z,7.30
2018-09-13T14:42:59.204Z,7.93
2018-09-13T14:45:27.746Z,7.50
2018-09-13T14:47:56.209Z,7.53
2018-09-13T14:50:24.694Z,6.53
2018-09-13T14:52:53.173Z,7.67
2018-09-13T14:55:21.719Z,7.33
2018-09-13T14:57:50.263Z,6.50
2018-09-13T15:00:18.783Z,7.03
2018-09-13T15:02:47.236Z,6.43
2018-09-13T15:05:15.833Z,7.17
2018-09-13T15:07:44.308Z,7.13
2018-09-13T15:10:12.806Z,6.50
2018-09-13T15:12:41.917Z,7.70
2018-09-13T15:15:10.395Z,6.10
2018-09-13T15:17:38.878Z,5.70
2018-09-13T15:20:07.576Z,7.23
2018-09-13T15:22:36.044Z,8.37
2018-09-13T15:25:04.560Z,5.23
2018-09-13T15:27:33.375Z,5.67
2018-09-13T15:30:02.099Z,4.80
2018-09-13T15:32:30.563Z,5.90
2018-09-13T15:34:59.051Z,5.17
2018-09-13T15:37:27.533Z,7.17
2018-09-13T15:39:56.003Z,5.60
2018-09-13T15:42:24.456Z,5.00
2018-09-13T15:44:52.962Z,5.40
2018-09-13T15:47:21.769Z,6.30
2018-09-13T15:49:50.278Z,5.53
2018-09-13T15:52:18.752Z,5.60
2018-09-13T15:54:47.606Z,5.40
2018-09-13T15:57:16.067Z,5.53
2018-09-13T15:59:44.580Z,5.50
2018-09-13T16:02:13.097Z,4.77
2018-09-13T16:04:41.585Z,5.27
2018-09-13T16:07:10.079Z,5.47
2018-09-13T16:09:38.847Z,5.00
2018-09-13T16:12:07.333Z,5.50
2018-09-13T16:14:36.060Z,5.20
2018-09-13T16:17:04.521Z,4.27
2018-09-13T16:19:33.028Z,4.60
2018-09-13T16:22:01.487Z,4.40
2018-09-13T16:24:30.076Z,5.70
2018-09-13T16:26:58.556Z,5.73
2018-09-13T16:29:27.070Z,4.63
2018-09-13T16:31:55.500Z,4.80
2018-09-13T16:34:23.977Z,4.63
2018-09-13T16:36:59.642Z,4.73
2018-09-13T16:39:33.303Z,4.43
2018-09-13T16:42:07.029Z,4.97
2018-09-13T16:44:40.708Z,5.10
2018-09-13T16:47:15.220Z,5.10
2018-09-13T16:49:43.755Z,5.40
2018-09-13T16:52:12.262Z,4.60
2018-09-13T16:54:40.736Z,5.53
2018-09-13T16:57:09.198Z,5.97
2018-09-13T16:59:37.947Z,5.10
2018-09-13T17:02:06.846Z,4.13
2018-09-13T17:04:35.346Z,13.37
2018-09-13T17:07:03.937Z,5.40
2018-09-13T17:09:32.305Z,5.53
2018-09-13T17:12:00.766Z,4.97
2018-09-13T17:14:29.219Z,5.00
2018-09-13T17:16:57.677Z,4.90
2018-09-13T17:19:26.110Z,5.30
2018-09-13T17:21:55.333Z,5.60
2018-09-13T17:24:23.819Z,5.87
2018-09-13T17:26:52.651Z,4.63
2018-09-13T17:29:21.113Z,5.77
2018-09-13T17:31:49.626Z,6.10
2018-09-13T17:34:18.100Z,6.30
2018-09-13T17:36:47.059Z,6.00
2018-09-13T17:39:15.566Z,6.30
2018-09-13T17:41:44.431Z,5.60
2018-09-13T17:44:13.171Z,5.37
2018-09-13T17:46:41.911Z,6.63
2018-09-13T17:49:10.397Z,5.40
2018-09-13T17:51:38.895Z,5.73
2018-09-13T17:54:07.396Z,5.57
2018-09-13T17:56:35.887Z,5.47
2018-09-13T17:59:04.365Z,5.30
2018-09-13T18:01:32.876Z,4.50
2018-09-13T18:04:01.336Z,5.13
2018-09-13T18:06:29.796Z,5.07
2018-09-13T18:08:58.309Z,5.90
2018-09-13T18:11:26.805Z,5.20
2018-09-13T18:13:55.555Z,5.20
2018-09-13T18:16:24.064Z,5.20
2018-09-13T18:18:52.549Z,5.80
2018-09-13T18:21:21.283Z,5.40
2018-09-13T18:23:49.760Z,5.33
2018-09-13T18:26:18.227Z,5.80
2018-09-13T18:28:46.686Z,5.53
2018-09-13T18:31:15.164Z,5.00
2018-09-13T18:33:43.615Z,6.10
2018-09-13T18:36:12.125Z,5.30
2018-09-13T18:38:40.669Z,5.07
2018-09-13T18:41:09.200Z,4.80
2018-09-13T18:43:37.647Z,4.73
2018-09-13T18:46:06.120Z,5.30
2018-09-13T18:48:34.599Z,5.20
2018-09-13T18:51:03.068Z,4.40
2018-09-13T18:53:31.498Z,4.77
2018-09-13T18:56:00.000Z,5.07
2018-09-13T18:58:28.565Z,4.77
2018-09-13T19:00:56.999Z,4.90
2018-09-13T19:03:25.622Z,4.70
2018-09-13T19:05:54.371Z,4.73
2018-09-13T19:08:22.835Z,5.60
2018-09-13T19:10:51.385Z,5.03
2018-09-13T19:13:19.808Z,4.80
2018-09-13T19:15:48.694Z,5.10
2018-09-13T19:18:17.149Z,4.23
2018-09-13T19:20:45.583Z,3.80
2018-09-13T19:23:16.871Z,4.57
2018-09-13T19:25:45.304Z,4.77
2018-09-13T19:28:13.818Z,4.20
2018-09-13T19:30:43.603Z,4.70
2018-09-13T19:33:13.561Z,5.03
2018-09-13T19:35:43.576Z,5.20
2018-09-13T19:38:13.262Z,5.10
2018-09-13T19:40:41.890Z,4.73
2018-09-13T19:43:12.913Z,5.60
2018-09-13T19:45:44.292Z,5.00
2018-09-13T19:48:12.848Z,5.43
2018-09-13T19:50:41.566Z,5.87
2018-09-13T19:53:09.933Z,5.50
2018-09-13T19:55:38.867Z,5.57
2018-09-13T19:58:07.309Z,6.53
2018-09-13T20:00:35.779Z,6.40
2018-09-13T20:03:04.377Z,5.70
2018-09-13T20:05:33.337Z,5.77
2018-09-13T20:08:02.017Z,7.23
2018-09-13T20:10:30.499Z,6.00
2018-09-13T20:12:59.295Z,6.77
2018-09-13T20:15:28.121Z,7.70
2018-09-13T20:17:56.606Z,7.70
2018-09-13T20:20:25.037Z,6.27
2018-09-13T20:22:53.554Z,7.50
2018-09-13T20:25:22.365Z,6.90
2018-09-13T20:27:50.928Z,6.40
2018-09-13T20:30:19.468Z,6.60
2018-09-13T20:32:47.980Z,6.80
2018-09-13T20:35:16.487Z,6.90
2018-09-13T20:37:44.996Z,7.30
2018-09-13T20:40:13.510Z,6.97
2018-09-13T20:42:42.041Z,7.07
2018-09-13T20:45:10.543Z,5.87
2018-09-13T20:47:38.999Z,7.10
2018-09-13T20:50:07.544Z,6.90
2018-09-13T20:52:36.283Z,7.27
2018-09-13T20:55:04.841Z,5.70
2018-09-13T20:57:33.331Z,6.50
2018-09-13T21:00:02.039Z,6.50
2018-09-13T21:02:30.551Z,5.70
2018-09-13T21:04:59.435Z,6.10
2018-09-13T21:07:28.247Z,6.33
2018-09-13T21:09:56.750Z,6.00
2018-09-13T21:12:25.211Z,6.00
2018-09-13T21:14:53.715Z,5.60
2018-09-13T21:17:22.170Z,5.97
2018-09-13T21:19:50.878Z,5.77
2018-09-13T21:22:19.422Z,5.60
2018-09-13T21:24:47.906Z,6.40
2018-09-13T21:27:16.700Z,6.37
2018-09-13T21:29:45.547Z,6.50
2018-09-13T21:32:14.003Z,6.37
2018-09-13T21:34:42.650Z,5.30
2018-09-13T21:37:11.122Z,5.23
2018-09-13T21:39:39.595Z,5.10
2018-09-13T21:42:08.152Z,5.80
2018-09-13T21:44:36.711Z,5.20
2018-09-13T21:47:05.210Z,5.30
2018-09-13T21:49:33.990Z,5.23
2018-09-13T21:52:02.506Z,5.57
2018-09-13T21:54:30.975Z,5.47
2018-09-13T21:56:59.506Z,5.37
2018-09-13T21:59:28.136Z,5.10
2018-09-13T22:01:56.599Z,5.90
2018-09-13T22:04:25.118Z,5.13
2018-09-13T22:06:53.584Z,5.50
2018-09-13T22:09:22.074Z,6.03
2018-09-13T22:11:50.590Z,6.40
2018-09-13T22:14:19.146Z,6.60
2018-09-13T22:16:47.657Z,5.70
2018-09-13T22:19:16.155Z,5.87
2018-09-13T22:21:44.622Z,6.80
2018-09-13T22:24:13.401Z,6.67
2018-09-13T22:26:41.843Z,6.20
2018-09-13T22:29:10.410Z,5.30
2018-09-13T22:31:38.845Z,6.40
2018-09-13T22:34:08.070Z,5.73
2018-09-13T22:36:37.106Z,5.40
2018-09-13T22:39:09.650Z,5.00
2018-09-13T22:41:38.901Z,4.77
2018-09-13T22:44:07.687Z,5.13
2018-09-13T22:46:36.197Z,6.27
2018-09-13T22:49:04.666Z,6.17
2018-09-13T22:51:33.134Z,5.20
2018-09-13T22:54:01.976Z,4.50
2018-09-13T22:56:30.515Z,4.50
2018-09-13T22:58:59.022Z,5.07
2018-09-13T23:01:27.516Z,5.10
2018-09-13T23:03:55.971Z,5.20
2018-09-13T23:06:24.729Z,4.70
2018-09-13T23:08:53.246Z,5.30
2018-09-13T23:11:22.073Z,4.53
2018-09-13T23:13:50.553Z,4.83
2018-09-13T23:16:19.055Z,4.80
2018-09-13T23:18:47.787Z,4.80
2018-09-13T23:21:16.264Z,4.40
2018-09-13T23:23:44.721Z,4.57
2018-09-13T23:26:13.293Z,5.00
2018-09-13T23:28:41.775Z,4.40
2018-09-13T23:31:10.275Z,4.93
2018-09-13T23:33:38.775Z,4.47
2018-09-13T23:36:07.318Z,4.70
2018-09-13T23:38:35.764Z,5.70
2018-09-13T23:41:04.251Z,5.30
2018-09-13T23:43:32.771Z,5.23
2018-09-13T23:46:01.291Z,5.37
2018-09-13T23:48:29.786Z,4.93
2018-09-13T23:50:58.255Z,5.03
2018-09-13T23:53:26.762Z,4.83
2018-09-13T23:55:55.230Z,5.47
2018-09-13T23:58:23.751Z,5.30
